Seeley, CA

23:20 PDT le 22 septembre 2014 (GMT -0700)
El Centro Naval Air Facility | Change Station
CLOSE
Current Station
Aéroport
Location: El Centro,
Altitude: -43 ft
Stations météo à proximité

Alt. -43 ft 32.83 °N, 115.66 °W | Updated 24 minutes ago

Ciel dégagé
Ciel dégagé
84 ° F
Paraît 84 ° F
N
0
Vent Variable Vent de Nord

Aujourd'hui
Haut(e) -- | Bas -- ° F
--% Risque de précip.
Hier
Haut(e) -- | Bas -- ° F
Precip. -- pouce
6:30 AM 6:39 PM
Lune descendante, 1% visible
Pression 29.88 pouce
Visibilité 10.0 Miles terrestres
Nuages Peu 20000 ft
indice de chaleur 84 ° F
Point de rosée 58 ° F
Humidité 41%
Précipitations 0.00 pouce
Profondeur de la couche neigeuse 0 in , 1 in , 1 in
UV 0 sur 12
Pollen 8.60 sur 12
Ozone Bon
PM2.5 Bon
Flu Activity Non disponible.
METAR KNJK 230556Z 00000KT 10SM FEW200 29/14 A2983 RMK AO2 SLP118 T02890144 10389 20289 51012 $

More Conditions Fewer Conditions

Pression 29.88 pouce
Visibilité 10.0 Miles terrestres
Nuages Peu 20000 ft
indice de chaleur 84 ° F
Point de rosée 58 ° F
Humidité 41%
Précipitations 0.00 pouce
Profondeur de la couche neigeuse 0 in , 1 in , 1 in
UV 0 sur 12
Pollen 8.60 sur 12
Ozone Bon
PM2.5 Bon
Flu Activity Non disponible.
METAR KNJK 230556Z 00000KT 10SM FEW200 29/14 A2983 RMK AO2 SLP118 T02890144 10389 20289 51012 $

More Conditions Fewer Conditions

10-Day Weather Forecast

Almanac

Astronomie

Sep. 22, 2014 Lever Coucher
Temps réel 06:30 PDT 18:39 PDT
Crépuscule civil 06:06 PDT 19:03 PDT
Crépuscule nautique 05:37 PDT 19:32 PDT
Crépuscule astronomique 05:08 PDT 20:01 PDT
Lune 05:06 PDT (9/22) 17:47 PDT (9/22)
Durée de lumière visible 12h 57m
Longueur du jour
12h 08m
Tomorrow will be 2m 1s shorter.
Lune descendante, 1% of the Moon is Illuminated
Sep 23
Lune descendante
Sep 24
Nouveau
Oct 1
Premier quartier
Oct 8
Pleine lune
Oct 15
Dernier quartier

Les extrêmes de température d’hier

State Highs State Lows

Community

WunderPhotos

Upload Photos

1,755,608 Photos téléchargées !

Nearby

Qualité de l'air

  Qualité de l'air Indice de la qualité de l'air Polluant
Hier Bon
PM2.5
Hier Bon
OZONE
Actuel Bon
PM2.5
Actuel Bon
OZONE
lundi Moyen
OZONE
mardi Moyen
OZONE
mercredi Moyen
OZONE
jeudi Bon
OZONE
vendredi Bon
OZONE
samedi Bon
OZONE

Épaisseur de neige

Station Depth Altitude
Heavenly Valley 0 in 8850 ft
CSS Lab 2 in 6900 ft
Leavitt Meadows 1 in 7200 ft
Spratt Creek 1 in 6200 ft
Leavitt Lake 1 in 9400 ft

Activité sismique

Ville Distance Mag. Time & Date
Big Bear Lake, California 126 Miles terrestres 2.5 07:26 PDT
2014-09-22
Borrego Springs, California 49 Miles terrestres 2.6 07:34 PDT
2014-09-21
Minimum magnitude displayed is 2.5.

Températures des eaux côtières

Lieu Température
Aucun rapport de station

Stations météo à proximité